Time,TemperatureF,DewpointF,PressureIn,WindDirection,WindDirectionDegrees,WindSpeedMPH,WindSpeedGustMPH,Humidity,HourlyPrecipIn,Conditions,Clouds,dailyrainin,SoftwareType,DateUTC
2013-02-24 00:01:00,40.0,39.0,29.85,SW,221,0.0,1.0,96,0.00,,,0.22,,2013-02-24 05:01:00,
2013-02-24 00:11:00,40.0,39.0,29.85,SW,221,0.0,1.0,96,0.00,,,0.22,,2013-02-24 05:11:00,
2013-02-24 00:22:00,40.0,39.0,29.85,SW,221,1.0,2.0,96,0.00,,,0.22,,2013-02-24 05:22:00,
2013-02-24 00:32:00,39.0,38.0,29.85,SW,221,0.0,1.0,96,0.00,,,0.22,,2013-02-24 05:32:00,
2013-02-24 00:42:00,39.0,38.0,29.85,SW,221,0.0,1.0,96,0.00,,,0.22,,2013-02-24 05:42:00,
2013-02-24 00:52:00,39.0,38.0,29.85,SW,221,1.0,2.0,96,0.00,,,0.22,,2013-02-24 05:52:00,
2013-02-24 01:01:00,38.0,37.0,29.86,SW,221,0.0,1.0,96,0.00,,,0.22,,2013-02-24 06:01:00,
2013-02-24 01:11:00,38.0,37.0,29.86,SW,221,0.0,1.0,96,0.00,,,0.22,,2013-02-24 06:11:00,
2013-02-24 01:21:00,38.0,37.0,29.85,SW,221,0.0,0.0,96,0.00,,,0.22,,2013-02-24 06:21:00,
2013-02-24 01:32:00,37.0,36.0,29.86,SW,221,0.0,2.0,96,0.00,,,0.22,,2013-02-24 06:32:00,
2013-02-24 01:42:00,37.0,36.0,29.86,SW,221,0.0,2.0,96,0.00,,,0.22,,2013-02-24 06:42:00,
2013-02-24 01:52:00,36.0,35.0,29.87,SW,221,0.0,0.0,96,0.00,,,0.22,,2013-02-24 06:52:00,
2013-02-24 02:01:00,36.0,35.0,29.86,SW,221,1.0,2.0,96,0.00,,,0.22,,2013-02-24 07:01:00,
2013-02-24 02:12:00,36.0,35.0,29.86,SW,221,1.0,2.0,96,0.00,,,0.22,,2013-02-24 07:12:00,
2013-02-24 02:21:00,37.0,36.0,29.85,East,81,0.0,5.0,97,0.00,,,0.21,,2013-02-24 07:21:00,
2013-02-24 02:32:00,36.0,35.0,29.85,NE,43,1.0,2.0,97,0.00,,,0.21,,2013-02-24 07:32:00,
2013-02-24 02:42:00,36.0,35.0,29.85,NE,43,1.0,2.0,97,0.00,,,0.21,,2013-02-24 07:42:00,
2013-02-24 02:52:00,35.0,34.0,29.85,SSE,163,1.0,2.0,97,0.00,,,0.21,,2013-02-24 07:52:00,
2013-02-24 03:01:00,34.0,33.0,29.84,SSE,163,1.0,2.0,97,0.00,,,0.21,,2013-02-24 08:01:00,
2013-02-24 03:11:00,34.0,33.0,29.84,SSE,163,1.0,2.0,97,0.00,,,0.21,,2013-02-24 08:11:00,
2013-02-24 03:22:00,34.0,33.0,29.86,SW,222,1.0,2.0,97,0.00,,,0.21,,2013-02-24 08:22:00,
2013-02-24 03:32:00,34.0,33.0,29.85,South,169,1.0,2.0,97,0.00,,,0.21,,2013-02-24 08:32:00,
2013-02-24 03:42:00,34.0,33.0,29.85,South,169,1.0,2.0,97,0.00,,,0.21,,2013-02-24 08:42:00,
2013-02-24 03:54:00,36.0,35.0,29.84,East,89,2.0,3.0,97,0.00,,,0.21,,2013-02-24 08:54:00,
2013-02-24 04:01:00,36.0,35.0,29.85,ESE,107,0.0,3.0,97,0.00,,,0.21,,2013-02-24 09:01:00,
2013-02-24 04:11:00,36.0,35.0,29.85,ESE,107,0.0,3.0,97,0.00,,,0.21,,2013-02-24 09:11:00,
2013-02-24 04:21:00,34.0,33.0,29.85,SE,131,1.0,2.0,97,0.00,,,0.19,,2013-02-24 09:21:00,
2013-02-24 04:32:00,33.0,32.0,29.85,North,9,0.0,2.0,97,0.00,,,0.19,,2013-02-24 09:32:00,
2013-02-24 04:42:00,33.0,32.0,29.85,North,9,0.0,2.0,97,0.00,,,0.19,,2013-02-24 09:42:00,
2013-02-24 04:52:00,33.0,32.0,29.86,North,5,1.0,3.0,97,0.00,,,0.19,,2013-02-24 09:52:00,
2013-02-24 05:01:00,34.0,33.0,29.87,NE,56,0.0,2.0,97,0.00,,,0.19,,2013-02-24 10:01:00,
2013-02-24 05:11:00,34.0,33.0,29.87,NE,56,0.0,2.0,97,0.00,,,0.19,,2013-02-24 10:11:00,
2013-02-24 05:21:00,33.0,32.0,29.88,NNE,23,0.0,3.0,97,0.00,,,0.11,,2013-02-24 10:21:00,
2013-02-24 05:32:00,33.0,32.0,29.88,North,355,2.0,2.0,97,0.00,,,0.11,,2013-02-24 10:32:00,
2013-02-24 05:42:00,33.0,32.0,29.88,North,355,2.0,2.0,97,0.00,,,0.11,,2013-02-24 10:42:00,
2013-02-24 05:52:00,35.0,34.0,29.88,ENE,61,1.0,3.0,97,0.00,,,0.11,,2013-02-24 10:52:00,
2013-02-24 06:01:00,33.0,32.0,29.89,WSW,253,1.0,3.0,97,0.00,,,0.11,,2013-02-24 11:01:00,
2013-02-24 06:11:00,33.0,32.0,29.89,WSW,253,1.0,3.0,97,0.00,,,0.11,,2013-02-24 11:11:00,
2013-02-24 06:22:00,34.0,33.0,29.89,West,259,1.0,2.0,97,0.00,,,0.04,,2013-02-24 11:22:00,
2013-02-24 06:32:00,34.0,34.0,29.90,NE,55,1.0,4.0,98,0.00,,,0.04,,2013-02-24 11:32:00,
2013-02-24 06:42:00,34.0,34.0,29.90,NE,55,1.0,4.0,98,0.00,,,0.04,,2013-02-24 11:42:00,
2013-02-24 06:53:00,33.0,32.0,29.91,WSW,258,2.0,3.0,97,0.00,,,0.04,,2013-02-24 11:53:00,
2013-02-24 07:02:00,34.0,34.0,29.92,East,101,1.0,5.0,98,0.00,,,0.04,,2013-02-24 12:02:00,
2013-02-24 07:11:00,34.0,34.0,29.92,East,101,1.0,5.0,98,0.00,,,0.04,,2013-02-24 12:11:00,
2013-02-24 07:22:00,38.0,37.0,29.92,NW,305,4.0,6.0,98,0.00,,,0.03,,2013-02-24 12:22:00,
2013-02-24 07:32:00,41.0,39.0,29.92,NW,315,2.0,5.0,92,0.00,,,0.03,,2013-02-24 12:32:00,
2013-02-24 07:46:00,41.0,39.0,29.92,NW,315,2.0,5.0,92,0.00,,,0.03,,2013-02-24 12:46:00,
2013-02-24 08:17:00,43.0,37.0,29.95,West,264,3.0,7.0,78,0.00,,,0.03,,2013-02-24 13:17:00,
2013-02-24 08:44:00,44.0,37.0,29.96,NNW,348,2.0,3.0,76,0.00,,,0.02,,2013-02-24 13:44:00,
2013-02-24 08:55:00,45.0,36.0,29.96,NW,315,4.0,7.0,71,0.00,,,0.02,,2013-02-24 13:55:00,
2013-02-24 09:14:00,47.0,36.0,29.96,NW,304,2.0,6.0,66,0.00,,,0.01,,2013-02-24 14:14:00,
2013-02-24 09:25:00,47.0,36.0,29.96,NW,304,2.0,6.0,66,0.00,,,0.01,,2013-02-24 14:25:00,
2013-02-24 09:34:00,47.0,35.0,29.96,WNW,286,3.0,9.0,62,0.00,,,0.01,,2013-02-24 14:34:00,
2013-02-24 09:44:00,47.0,35.0,29.96,WNW,286,3.0,9.0,62,0.00,,,0.01,,2013-02-24 14:44:00,
2013-02-24 09:55:00,48.0,34.0,29.98,West,281,3.0,9.0,59,0.00,,,0.01,,2013-02-24 14:55:00,
2013-02-24 10:03:00,48.0,33.0,29.98,North,5,5.0,9.0,55,0.00,,,0.01,,2013-02-24 15:03:00,
2013-02-24 10:32:00,50.0,33.0,29.99,NW,315,3.0,9.0,51,0.00,,,0.00,,2013-02-24 15:32:00,
2013-02-24 10:42:00,50.0,33.0,29.99,NW,315,3.0,9.0,51,0.00,,,0.00,,2013-02-24 15:42:00,
2013-02-24 10:53:00,50.0,32.0,29.98,ENE,57,2.0,6.0,50,0.00,,,0.00,,2013-02-24 15:53:00,
2013-02-24 11:01:00,51.0,31.0,29.98,NNE,18,4.0,6.0,47,0.00,,,0.00,,2013-02-24 16:01:00,
2013-02-24 11:12:00,51.0,31.0,29.98,NNE,18,4.0,6.0,47,0.00,,,0.00,,2013-02-24 16:12:00,
2013-02-24 11:21:00,51.0,29.0,29.99,WNW,298,4.0,8.0,43,0.00,,,0.00,,2013-02-24 16:21:00,
2013-02-24 11:32:00,51.0,30.0,29.99,NE,46,3.0,7.0,45,0.00,,,0.00,,2013-02-24 16:32:00,
2013-02-24 11:42:00,51.0,30.0,29.99,NE,46,3.0,7.0,45,0.00,,,0.00,,2013-02-24 16:42:00,
2013-02-24 11:52:00,51.0,29.0,29.98,West,262,2.0,8.0,42,0.00,,,0.00,,2013-02-24 16:52:00,
2013-02-24 12:01:00,51.0,29.0,29.98,West,268,3.0,10.0,42,0.00,,,0.00,,2013-02-24 17:01:00,
2013-02-24 12:11:00,51.0,29.0,29.98,West,268,3.0,10.0,42,0.00,,,0.00,,2013-02-24 17:11:00,
2013-02-24 12:22:00,52.0,29.0,29.98,ENE,59,3.0,5.0,41,0.00,,,0.00,,2013-02-24 17:22:00,
2013-02-24 12:32:00,54.0,31.0,29.97,South,188,1.0,5.0,41,0.00,,,0.00,,2013-02-24 17:32:00,
2013-02-24 12:42:00,54.0,31.0,29.97,South,188,1.0,5.0,41,0.00,,,0.00,,2013-02-24 17:42:00,
2013-02-24 12:53:00,54.0,28.0,29.96,NNW,333,3.0,6.0,37,0.00,,,0.00,,2013-02-24 17:53:00,
2013-02-24 13:02:00,55.0,27.0,29.96,NE,36,2.0,10.0,34,0.00,,,0.00,,2013-02-24 18:02:00,
2013-02-24 13:11:00,55.0,27.0,29.96,NE,36,2.0,10.0,34,0.00,,,0.00,,2013-02-24 18:11:00,
2013-02-24 13:22:00,56.0,27.0,29.95,WSW,248,5.0,11.0,33,0.00,,,0.00,,2013-02-24 18:22:00,
2013-02-24 13:32:00,56.0,24.0,29.95,West,270,6.0,11.0,29,0.00,,,0.00,,2013-02-24 18:32:00,
2013-02-24 13:42:00,56.0,24.0,29.95,West,270,6.0,11.0,29,0.00,,,0.00,,2013-02-24 18:42:00,
2013-02-24 13:52:00,57.0,25.0,29.95,WNW,292,5.0,13.0,29,0.00,,,0.00,,2013-02-24 18:52:00,
2013-02-24 14:01:00,58.0,23.0,29.94,NW,311,6.0,13.0,26,0.00,,,0.00,,2013-02-24 19:01:00,
2013-02-24 14:12:00,58.0,23.0,29.94,NW,311,6.0,13.0,26,0.00,,,0.00,,2013-02-24 19:12:00,
2013-02-24 14:22:00,58.0,24.0,29.94,NNW,340,5.0,13.0,27,0.00,,,0.00,,2013-02-24 19:22:00,
2013-02-24 14:32:00,58.0,24.0,29.94,NW,322,4.0,14.0,27,0.00,,,0.00,,2013-02-24 19:32:00,
2013-02-24 14:42:00,58.0,24.0,29.94,NW,322,4.0,14.0,27,0.00,,,0.00,,2013-02-24 19:42:00,
2013-02-24 14:52:00,58.0,24.0,29.94,NW,312,5.0,10.0,27,0.00,,,0.00,,2013-02-24 19:52:00,
2013-02-24 15:02:00,59.0,25.0,29.94,NNW,327,3.0,10.0,27,0.00,,,0.00,,2013-02-24 20:02:00,
2013-02-24 15:11:00,59.0,25.0,29.94,NNW,327,3.0,10.0,27,0.00,,,0.00,,2013-02-24 20:11:00,
2013-02-24 15:21:00,59.0,26.0,29.93,NNW,347,3.0,10.0,28,0.00,,,0.00,,2013-02-24 20:21:00,
2013-02-24 15:32:00,60.0,26.0,29.94,NNW,332,4.0,7.0,27,0.00,,,0.00,,2013-02-24 20:32:00,
2013-02-24 15:42:00,60.0,26.0,29.94,NNW,332,4.0,7.0,27,0.00,,,0.00,,2013-02-24 20:42:00,
2013-02-24 15:52:00,59.0,23.0,29.94,NNW,327,4.0,9.0,25,0.00,,,0.00,,2013-02-24 20:52:00,
2013-02-24 16:02:00,58.0,22.0,29.94,NNW,346,6.0,13.0,25,0.00,,,0.00,,2013-02-24 21:02:00,
2013-02-24 16:11:00,58.0,22.0,29.94,NNW,346,6.0,13.0,25,0.00,,,0.00,,2013-02-24 21:11:00,
2013-02-24 16:21:00,58.0,24.0,29.94,NW,310,2.0,8.0,27,0.00,,,0.00,,2013-02-24 21:21:00,
2013-02-24 16:32:00,58.0,25.0,29.95,NW,315,4.0,9.0,28,0.00,,,0.00,,2013-02-24 21:32:00,
2013-02-24 16:42:00,58.0,25.0,29.95,NW,315,4.0,9.0,28,0.00,,,0.00,,2013-02-24 21:42:00,
2013-02-24 16:52:00,58.0,23.0,29.95,WNW,294,4.0,9.0,26,0.00,,,0.00,,2013-02-24 21:52:00,
2013-02-24 17:01:00,58.0,22.0,29.96,North,10,5.0,11.0,25,0.00,,,0.00,,2013-02-24 22:01:00,
2013-02-24 17:11:00,58.0,22.0,29.96,North,10,5.0,11.0,25,0.00,,,0.00,,2013-02-24 22:11:00,
2013-02-24 17:21:00,57.0,22.0,29.96,NW,315,4.0,11.0,25,0.00,,,0.00,,2013-02-24 22:21:00,
2013-02-24 17:32:00,57.0,23.0,29.96,WNW,297,2.0,6.0,27,0.00,,,0.00,,2013-02-24 22:32:00,
2013-02-24 17:42:00,57.0,23.0,29.96,WNW,297,2.0,6.0,27,0.00,,,0.00,,2013-02-24 22:42:00,
2013-02-24 17:52:00,56.0,20.0,29.97,WNW,294,5.0,10.0,24,0.00,,,0.00,,2013-02-24 22:52:00,
2013-02-24 18:02:00,55.0,21.0,29.98,NW,321,3.0,10.0,26,0.00,,,0.00,,2013-02-24 23:02:00,
2013-02-24 18:11:00,55.0,21.0,29.98,NW,321,3.0,10.0,26,0.00,,,0.00,,2013-02-24 23:11:00,
2013-02-24 18:21:00,54.0,22.0,29.98,NW,312,4.0,9.0,28,0.00,,,0.00,,2013-02-24 23:21:00,
2013-02-24 18:32:00,52.0,22.0,29.99,NW,317,3.0,8.0,30,0.00,,,0.00,,2013-02-24 23:32:00,
2013-02-24 18:42:00,52.0,22.0,29.99,NW,317,3.0,8.0,30,0.00,,,0.00,,2013-02-24 23:42:00,
2013-02-24 18:52:00,51.0,21.0,30.00,NNW,346,1.0,3.0,31,0.00,,,0.00,,2013-02-24 23:52:00,
2013-02-24 19:01:00,50.0,23.0,30.01,NNE,16,1.0,3.0,35,0.00,,,0.00,,2013-02-25 00:01:00,
2013-02-24 19:11:00,50.0,23.0,30.01,NNE,16,1.0,3.0,35,0.00,,,0.00,,2013-02-25 00:11:00,
2013-02-24 19:21:00,49.0,23.0,30.02,North,360,2.0,4.0,36,0.00,,,0.00,,2013-02-25 00:21:00,
2013-02-24 19:32:00,47.0,23.0,30.02,NNW,332,2.0,3.0,39,0.00,,,0.00,,2013-02-25 00:32:00,
2013-02-24 19:42:00,47.0,23.0,30.02,NNW,332,2.0,3.0,39,0.00,,,0.00,,2013-02-25 00:42:00,
2013-02-24 19:52:00,48.0,22.0,30.03,North,360,2.0,6.0,36,0.00,,,0.00,,2013-02-25 00:52:00,
2013-02-24 20:01:00,49.0,22.0,30.04,NW,315,3.0,7.0,34,0.00,,,0.00,,2013-02-25 01:01:00,
2013-02-24 20:11:00,49.0,22.0,30.04,NW,315,3.0,7.0,34,0.00,,,0.00,,2013-02-25 01:11:00,
2013-02-24 20:21:00,48.0,22.0,30.04,NNW,347,1.0,4.0,36,0.00,,,0.00,,2013-02-25 01:21:00,
2013-02-24 20:32:00,47.0,22.0,30.05,North,350,1.0,2.0,37,0.00,,,0.00,,2013-02-25 01:32:00,
2013-02-24 20:42:00,47.0,22.0,30.05,North,350,1.0,2.0,37,0.00,,,0.00,,2013-02-25 01:42:00,
2013-02-24 20:52:00,46.0,23.0,30.06,North,5,1.0,2.0,40,0.00,,,0.00,,2013-02-25 01:52:00,
2013-02-24 21:01:00,45.0,22.0,30.06,NNW,339,0.0,2.0,40,0.00,,,0.00,,2013-02-25 02:01:00,
2013-02-24 21:11:00,44.0,22.0,30.07,NNW,339,1.0,2.0,42,0.00,,,0.00,,2013-02-25 02:11:00,
2013-02-24 21:21:00,44.0,22.0,30.07,NNW,339,1.0,2.0,42,0.00,,,0.00,,2013-02-25 02:21:00,
2013-02-24 21:32:00,43.0,25.0,30.06,NNW,339,1.0,2.0,48,0.00,,,0.00,,2013-02-25 02:32:00,
2013-02-24 21:42:00,43.0,25.0,30.06,NNW,339,1.0,2.0,48,0.00,,,0.00,,2013-02-25 02:42:00,
2013-02-24 21:52:00,41.0,24.0,30.06,North,360,0.0,3.0,51,0.00,,,0.00,,2013-02-25 02:52:00,
2013-02-24 22:01:00,41.0,22.0,30.07,North,10,0.0,2.0,47,0.00,,,0.00,,2013-02-25 03:01:00,
2013-02-24 22:11:00,41.0,22.0,30.07,North,10,0.0,2.0,47,0.00,,,0.00,,2013-02-25 03:11:00,
2013-02-24 22:21:00,40.0,25.0,30.07,NW,325,1.0,3.0,55,0.00,,,0.00,,2013-02-25 03:21:00,
2013-02-24 22:32:00,39.0,23.0,30.07,NW,325,0.0,1.0,53,0.00,,,0.00,,2013-02-25 03:32:00,
2013-02-24 22:42:00,39.0,23.0,30.07,NW,325,0.0,1.0,53,0.00,,,0.00,,2013-02-25 03:42:00,
2013-02-24 22:52:00,40.0,23.0,30.07,NW,325,0.0,1.0,51,0.00,,,0.00,,2013-02-25 03:52:00,
2013-02-24 23:02:00,40.0,22.0,30.07,NW,325,0.0,1.0,49,0.00,,,0.00,,2013-02-25 04:02:00,
2013-02-24 23:11:00,40.0,22.0,30.07,NW,325,0.0,1.0,49,0.00,,,0.00,,2013-02-25 04:11:00,
2013-02-24 23:21:00,40.0,22.0,30.07,NW,325,0.0,1.0,49,0.00,,,0.00,,2013-02-25 04:21:00,
2013-02-24 23:32:00,38.0,24.0,30.07,NNW,338,0.0,3.0,56,0.00,,,0.00,,2013-02-25 04:32:00,
2013-02-24 23:42:00,38.0,24.0,30.07,NNW,338,0.0,3.0,56,0.00,,,0.00,,2013-02-25 04:42:00,
2013-02-24 23:52:00,39.0,23.0,30.06,NW,318,1.0,3.0,52,0.00,,,0.00,,2013-02-25 04:52:00,